createdAt,value
2023-04-19T00:01:32.632Z,13.32
2023-04-19T00:04:06.261Z,14.35
2023-04-19T00:06:42.215Z,13.55
2023-04-19T00:09:15.335Z,13.73
2023-04-19T00:11:48.327Z,13.75
2023-04-19T00:14:21.445Z,13.65
2023-04-19T00:16:54.526Z,13.55
2023-04-19T00:19:27.706Z,13.80
2023-04-19T00:22:02.161Z,15.05
2023-04-19T00:24:35.175Z,14.63
2023-04-19T00:27:08.156Z,14.30
2023-04-19T00:29:41.283Z,14.80
2023-04-19T00:32:14.415Z,14.43
2023-04-19T00:34:47.501Z,14.43
2023-04-19T00:37:21.971Z,14.07
2023-04-19T00:39:54.975Z,15.23
2023-04-19T00:42:28.028Z,13.85
2023-04-19T00:45:01.064Z,13.88
2023-04-19T00:47:34.126Z,14.23
2023-04-19T00:50:09.307Z,12.98
2023-04-19T00:52:43.797Z,15.20
2023-04-19T00:55:17.068Z,14.80
2023-04-19T00:57:51.918Z,14.88
2023-04-19T01:00:24.979Z,14.13
2023-04-19T01:02:58.272Z,13.68
2023-04-19T01:05:32.008Z,15.20
2023-04-19T01:08:06.865Z,14.65
2023-04-19T01:10:39.864Z,14.52
2023-04-19T01:13:13.247Z,13.52
2023-04-19T01:15:46.451Z,14.07
2023-04-19T01:18:20.013Z,14.88
2023-04-19T01:20:53.213Z,14.98
2023-04-19T01:23:27.743Z,14.05
2023-04-19T01:26:01.390Z,14.80
2023-04-19T01:28:34.776Z,15.05
2023-04-19T01:31:07.865Z,14.82
2023-04-19T01:33:40.968Z,15.05
2023-04-19T01:36:14.050Z,15.55
2023-04-19T01:38:48.537Z,14.77
2023-04-19T01:41:22.765Z,15.27
2023-04-19T01:43:55.846Z,16.15
2023-04-19T01:46:28.959Z,14.90
2023-04-19T01:49:02.036Z,14.82
2023-04-19T01:51:35.042Z,14.40
2023-04-19T01:54:09.357Z,14.25
2023-04-19T01:56:42.375Z,15.88
2023-04-19T01:59:15.396Z,14.60
2023-04-19T02:01:48.435Z,15.13
2023-04-19T02:04:22.520Z,15.52
2023-04-19T02:06:55.671Z,15.75
2023-04-19T02:09:30.063Z,15.23
2023-04-19T02:12:03.151Z,16.42
2023-04-19T02:14:37.130Z,15.68
2023-04-19T02:17:10.149Z,15.60
2023-04-19T02:19:43.202Z,16.02
2023-04-19T02:22:16.356Z,15.55
2023-04-19T02:24:52.001Z,16.17
2023-04-19T02:27:25.021Z,15.27
2023-04-19T02:29:58.058Z,16.90
2023-04-19T02:32:31.969Z,15.80
2023-04-19T02:35:05.840Z,16.23
2023-04-19T02:37:38.880Z,14.90
2023-04-19T02:40:13.489Z,16.17
2023-04-19T02:42:46.480Z,15.50
2023-04-19T02:45:19.515Z,15.68
2023-04-19T02:47:52.732Z,15.15
2023-04-19T02:50:25.746Z,16.88
2023-04-19T02:52:59.677Z,15.93
2023-04-19T02:55:34.440Z,16.35
2023-04-19T02:58:07.486Z,16.90
2023-04-19T03:00:40.750Z,15.93
2023-04-19T03:03:15.512Z,17.02
2023-04-19T03:05:48.714Z,16.13
2023-04-19T03:08:21.728Z,16.67
2023-04-19T03:10:56.189Z,16.50
2023-04-19T03:13:29.208Z,16.63
2023-04-19T03:16:02.219Z,16.02
2023-04-19T03:18:36.390Z,15.97
2023-04-19T03:21:09.527Z,16.77
2023-04-19T03:23:42.542Z,17.07
2023-04-19T03:26:16.881Z,16.60
2023-04-19T03:28:49.868Z,16.20
2023-04-19T03:31:22.887Z,15.52
2023-04-19T03:33:55.928Z,17.80
2023-04-19T03:36:28.957Z,17.27
2023-04-19T03:39:03.690Z,15.30
2023-04-19T03:41:38.021Z,15.65
2023-04-19T03:44:11.017Z,16.20
2023-04-19T03:46:46.448Z,18.15
2023-04-19T03:49:20.042Z,17.60
2023-04-19T03:51:53.078Z,16.63
2023-04-19T03:54:26.343Z,17.40
2023-04-19T03:57:00.676Z,16.33
2023-04-19T03:59:33.875Z,16.52
2023-04-19T04:02:07.685Z,17.13
2023-04-19T04:04:40.991Z,17.20
2023-04-19T04:07:14.320Z,16.90
2023-04-19T04:09:47.835Z,17.77
2023-04-19T04:12:22.232Z,17.07
2023-04-19T04:14:55.277Z,17.20
2023-04-19T04:17:28.334Z,17.00
2023-04-19T04:20:01.605Z,16.98
2023-04-19T04:22:34.649Z,16.37
2023-04-19T04:25:09.289Z,15.70
2023-04-19T04:27:43.991Z,17.02
2023-04-19T04:30:17.050Z,17.70
2023-04-19T04:32:51.314Z,16.40
2023-04-19T04:35:24.685Z,16.63
2023-04-19T04:37:57.715Z,16.47
2023-04-19T04:40:30.744Z,16.27
2023-04-19T04:43:05.635Z,15.80
2023-04-19T04:45:38.791Z,16.07
2023-04-19T04:48:11.773Z,16.53
2023-04-19T04:50:45.346Z,17.03
2023-04-19T04:53:18.320Z,16.23
2023-04-19T04:55:51.480Z,17.00
2023-04-19T04:58:25.926Z,17.37
2023-04-19T05:00:58.946Z,16.08
2023-04-19T05:03:32.031Z,17.25
2023-04-19T05:06:05.614Z,16.23
2023-04-19T05:08:38.631Z,15.33
2023-04-19T05:11:12.948Z,16.63
2023-04-19T05:13:47.383Z,17.43
2023-04-19T05:16:20.818Z,15.73
2023-04-19T05:18:53.886Z,16.90
2023-04-19T05:21:27.204Z,15.63
2023-04-19T05:24:00.392Z,16.33
2023-04-19T05:26:33.484Z,15.33
2023-04-19T05:29:07.865Z,16.80
2023-04-19T05:31:40.977Z,15.43
2023-04-19T05:34:14.223Z,15.60
2023-04-19T05:36:47.649Z,14.63
2023-04-19T05:39:20.653Z,15.03
2023-04-19T05:41:53.790Z,14.43
2023-04-19T05:44:28.154Z,15.73
2023-04-19T05:47:01.273Z,14.20
2023-04-19T05:49:34.333Z,14.20
2023-04-19T05:52:07.421Z,15.52
2023-04-19T05:54:40.452Z,15.63
2023-04-19T05:57:13.672Z,15.77
2023-04-19T05:59:48.284Z,14.63
2023-04-19T06:02:21.584Z,14.23
2023-04-19T06:04:54.923Z,15.07
2023-04-19T06:07:33.939Z,15.57
2023-04-19T06:10:10.617Z,14.70
2023-04-19T06:12:43.708Z,15.07
2023-04-19T06:15:18.443Z,14.50
2023-04-19T06:17:51.566Z,14.52
2023-04-19T06:20:24.666Z,15.00
2023-04-19T06:22:57.697Z,14.88
2023-04-19T06:25:31.201Z,15.32
2023-04-19T06:28:04.532Z,14.00
2023-04-19T06:30:38.914Z,14.68
2023-04-19T06:33:11.973Z,14.38
2023-04-19T06:35:44.978Z,14.60
2023-04-19T06:38:18.001Z,14.82
2023-04-19T06:40:51.073Z,15.00
2023-04-19T06:43:24.331Z,13.55
2023-04-19T06:46:02.110Z,13.73
2023-04-19T06:48:35.876Z,14.45
2023-04-19T06:51:09.125Z,14.23
2023-04-19T06:53:42.221Z,13.40
2023-04-19T06:56:15.388Z,14.57
2023-04-19T06:58:48.473Z,13.75
2023-04-19T07:01:22.857Z,13.35
2023-04-19T07:03:57.536Z,13.20
2023-04-19T07:06:30.783Z,12.80
2023-04-19T07:09:04.535Z,13.05
2023-04-19T07:11:37.620Z,12.13
2023-04-19T07:14:10.679Z,11.88
2023-04-19T07:16:45.074Z,11.13
2023-04-19T07:19:19.255Z,12.02
2023-04-19T07:21:52.982Z,11.80
2023-04-19T07:24:27.918Z,12.07
2023-04-19T07:27:01.823Z,12.48
2023-04-19T07:29:36.739Z,11.23
2023-04-19T07:32:11.261Z,11.40
2023-04-19T07:34:45.838Z,11.30
2023-04-19T07:37:18.917Z,11.65
2023-04-19T07:39:51.938Z,11.60
2023-04-19T07:42:26.003Z,11.57
2023-04-19T07:44:59.618Z,11.10
2023-04-19T07:47:34.231Z,12.43
2023-04-19T07:50:09.560Z,10.98
2023-04-19T07:52:42.690Z,12.23
2023-04-19T07:55:15.766Z,12.68
2023-04-19T07:57:49.176Z,11.50
2023-04-19T08:00:22.556Z,12.55
2023-04-19T08:02:58.214Z,12.13
2023-04-19T08:05:32.182Z,11.68
2023-04-19T08:08:05.607Z,11.07
2023-04-19T08:10:38.692Z,11.50
2023-04-19T08:13:11.788Z,11.98
2023-04-19T08:18:22.243Z,11.57
2023-04-19T08:20:56.617Z,11.80
2023-04-19T08:23:41.189Z,11.65
2023-04-19T08:26:20.654Z,12.40
2023-04-19T08:28:53.661Z,11.27
2023-04-19T08:31:26.740Z,10.27
2023-04-19T08:34:02.729Z,10.77
2023-04-19T08:36:43.407Z,11.07
2023-04-19T08:39:32.319Z,11.80
2023-04-19T08:42:13.380Z,10.73
2023-04-19T08:45:17.159Z,10.95
2023-04-19T08:48:00.521Z,10.75
2023-04-19T08:50:48.457Z,11.13
2023-04-19T08:53:30.518Z,10.23
2023-04-19T08:56:15.169Z,10.35
2023-04-19T08:59:07.515Z,10.73
2023-04-19T09:01:47.326Z,11.00
2023-04-19T09:04:34.799Z,10.30
2023-04-19T09:07:24.237Z,10.23
2023-04-19T09:10:08.705Z,10.68
2023-04-19T09:12:42.822Z,10.25
2023-04-19T09:15:15.863Z,10.75
2023-04-19T09:18:06.588Z,11.10
2023-04-19T09:20:41.337Z,11.32
2023-04-19T09:23:17.945Z,10.88
2023-04-19T09:26:19.323Z,10.68
2023-04-19T09:28:58.028Z,10.85
2023-04-19T09:31:47.952Z,11.52
2023-04-19T09:34:24.495Z,12.10
2023-04-19T09:37:11.677Z,11.13
2023-04-19T09:39:50.962Z,10.98
2023-04-19T09:42:47.276Z,10.18
2023-04-19T09:48:04.299Z,9.35
2023-04-19T09:50:53.640Z,9.73
2023-04-19T09:53:30.994Z,9.85
2023-04-19T09:56:06.237Z,9.77
2023-04-19T09:58:51.064Z,10.57
2023-04-19T10:01:29.582Z,10.63
2023-04-19T10:04:14.886Z,10.98
2023-04-19T10:09:35.614Z,11.02
2023-04-19T10:12:31.239Z,10.88
2023-04-19T10:15:07.841Z,11.10
2023-04-19T10:17:41.264Z,10.52
2023-04-19T10:20:24.601Z,11.07
2023-04-19T10:22:58.180Z,11.18
2023-04-19T10:25:31.818Z,9.80
2023-04-19T10:28:07.150Z,11.13
2023-04-19T10:30:55.550Z,11.35
2023-04-19T10:33:31.595Z,10.55
2023-04-19T10:36:05.987Z,11.23
2023-04-19T10:38:41.508Z,12.13
2023-04-19T10:41:17.402Z,10.65
2023-04-19T10:44:13.707Z,10.60
2023-04-19T10:46:48.170Z,11.10
2023-04-19T10:49:25.016Z,9.30
2023-04-19T10:52:00.192Z,10.27
2023-04-19T10:54:36.517Z,10.27
2023-04-19T10:57:11.378Z,10.48
2023-04-19T10:59:46.039Z,10.73
2023-04-19T11:02:30.861Z,9.80
2023-04-19T11:05:05.467Z,11.32
2023-04-19T11:07:42.831Z,11.55
2023-04-19T11:10:30.429Z,10.48
2023-04-19T11:13:03.638Z,12.57
2023-04-19T11:15:44.584Z,12.55
2023-04-19T11:18:19.961Z,13.00
2023-04-19T11:20:54.637Z,14.75
2023-04-19T11:23:27.826Z,14.13
2023-04-19T11:26:00.881Z,15.30
2023-04-19T11:28:34.783Z,15.00
2023-04-19T11:31:09.171Z,16.27
2023-04-19T11:33:45.045Z,15.68
2023-04-19T11:36:18.023Z,17.23
2023-04-19T11:38:51.135Z,18.25
2023-04-19T11:41:24.146Z,17.20
2023-04-19T11:43:57.277Z,16.73
2023-04-19T11:46:31.678Z,17.95
2023-04-19T11:49:04.775Z,18.77
2023-04-19T11:51:43.255Z,18.35
2023-04-19T11:54:18.355Z,18.45
2023-04-19T11:57:06.051Z,20.40
2023-04-19T11:59:40.078Z,19.90
2023-04-19T12:02:15.042Z,19.70
2023-04-19T12:04:48.291Z,20.80
2023-04-19T12:07:21.963Z,20.25
2023-04-19T12:09:55.791Z,20.45
2023-04-19T12:12:34.667Z,19.75
2023-04-19T12:15:09.224Z,19.88
2023-04-19T12:20:46.521Z,18.67
2023-04-19T12:23:21.687Z,17.55
2023-04-19T12:25:54.652Z,18.25
2023-04-19T12:28:27.724Z,18.27
2023-04-19T12:31:00.920Z,18.27
2023-04-19T12:33:33.991Z,16.58
2023-04-19T12:36:09.241Z,20.00
2023-04-19T12:38:42.225Z,19.88
2023-04-19T12:41:15.329Z,20.30
2023-04-19T12:43:48.359Z,19.85
2023-04-19T12:46:21.571Z,20.30
2023-04-19T12:48:54.674Z,19.35
2023-04-19T12:51:29.076Z,19.65
2023-04-19T12:54:02.448Z,20.00
2023-04-19T12:56:35.960Z,18.93
2023-04-19T12:59:09.004Z,17.70
2023-04-19T13:01:42.119Z,18.23
2023-04-19T13:04:15.957Z,18.30
2023-04-19T13:06:51.132Z,19.20
2023-04-19T13:09:24.216Z,19.53
2023-04-19T13:11:57.825Z,18.63
2023-04-19T13:14:30.896Z,18.23
2023-04-19T13:17:03.901Z,18.07
2023-04-19T13:19:36.940Z,15.82
2023-04-19T13:22:11.374Z,16.95
2023-04-19T13:24:44.408Z,16.98
2023-04-19T13:27:17.476Z,17.00
2023-04-19T13:29:50.691Z,17.80
2023-04-19T13:32:24.091Z,17.02
2023-04-19T13:34:57.248Z,16.27
2023-04-19T13:37:31.790Z,16.05
2023-04-19T13:40:18.082Z,15.70
2023-04-19T13:42:54.285Z,16.58
2023-04-19T13:45:27.499Z,16.67
2023-04-19T13:48:00.839Z,16.65
2023-04-19T13:50:34.067Z,16.73
2023-04-19T13:53:08.508Z,18.33
2023-04-19T13:55:41.838Z,16.45
2023-04-19T13:58:14.917Z,16.63
2023-04-19T14:00:48.972Z,18.10
2023-04-19T14:03:23.609Z,16.88
2023-04-19T14:05:56.855Z,16.88
2023-04-19T14:08:31.221Z,15.73
2023-04-19T14:11:04.628Z,16.52
2023-04-19T14:13:37.788Z,15.50
2023-04-19T14:16:10.847Z,17.45
2023-04-19T14:18:43.881Z,16.25
2023-04-19T14:21:18.196Z,15.95
2023-04-19T14:23:52.581Z,15.55
2023-04-19T14:26:27.072Z,15.05
2023-04-19T14:29:00.634Z,15.10
2023-04-19T14:31:34.457Z,14.27
2023-04-19T14:34:07.498Z,13.90
2023-04-19T14:36:40.598Z,15.00
2023-04-19T14:39:15.199Z,14.50
2023-04-19T14:41:48.432Z,14.85
2023-04-19T14:44:21.501Z,15.15
2023-04-19T14:46:54.541Z,14.57
2023-04-19T14:49:27.568Z,14.35
2023-04-19T14:52:00.604Z,14.68
2023-04-19T14:54:35.059Z,14.02
2023-04-19T14:57:08.101Z,14.35
2023-04-19T14:59:41.152Z,14.50
2023-04-19T15:02:14.223Z,25.50
2023-04-19T15:04:47.883Z,16.15
2023-04-19T15:07:21.534Z,16.00
2023-04-19T15:09:55.931Z,15.00
2023-04-19T15:12:29.095Z,15.57
2023-04-19T15:15:02.380Z,17.85
2023-04-19T15:17:35.749Z,13.63
2023-04-19T15:20:10.456Z,14.43
2023-04-19T15:22:43.482Z,13.70
2023-04-19T15:25:18.734Z,13.65
2023-04-19T15:27:51.726Z,14.05
2023-04-19T15:30:24.752Z,14.55
2023-04-19T15:32:57.788Z,13.73
2023-04-19T15:35:32.122Z,12.60
2023-04-19T15:38:05.189Z,13.23
2023-04-19T15:40:40.192Z,13.50
2023-04-19T15:43:13.715Z,13.55
2023-04-19T15:45:46.753Z,13.10
2023-04-19T15:48:21.152Z,15.73
2023-04-19T15:50:54.260Z,13.73
2023-04-19T15:53:27.343Z,13.27
2023-04-19T15:56:01.727Z,12.77
2023-04-19T15:58:34.805Z,12.93
2023-04-19T16:01:12.421Z,11.43
2023-04-19T16:03:46.105Z,10.85
2023-04-19T16:06:19.290Z,11.27
2023-04-19T16:08:52.360Z,11.38
2023-04-19T16:11:26.838Z,10.73
2023-04-19T16:13:59.876Z,11.23
2023-04-19T16:16:34.352Z,10.75
2023-04-19T16:19:07.597Z,11.95
2023-04-19T16:21:41.081Z,9.73
2023-04-19T16:24:14.155Z,10.82
2023-04-19T16:26:48.540Z,10.88
2023-04-19T16:29:21.564Z,10.55
2023-04-19T16:31:54.704Z,10.13
2023-04-19T16:34:28.037Z,8.25
2023-04-19T16:37:01.275Z,7.25
2023-04-19T16:39:34.535Z,5.03
2023-04-19T16:42:09.031Z,4.00
2023-04-19T16:44:42.313Z,3.55
2023-04-19T16:47:15.469Z,3.42
2023-04-19T16:49:50.396Z,3.38
2023-04-19T16:52:23.417Z,2.83
2023-04-19T16:54:56.428Z,2.85
2023-04-19T16:57:32.022Z,2.90
2023-04-19T17:00:06.910Z,2.80
2023-04-19T17:02:40.232Z,2.70
2023-04-19T17:05:13.806Z,2.85
2023-04-19T17:07:46.922Z,2.83
2023-04-19T17:10:20.017Z,2.33
2023-04-19T17:12:55.489Z,2.97
2023-04-19T17:15:28.733Z,3.00
2023-04-19T17:18:01.780Z,3.20
2023-04-19T17:20:34.871Z,2.92
2023-04-19T17:23:07.957Z,2.80
2023-04-19T17:25:41.307Z,3.03
2023-04-19T17:28:16.164Z,3.00
2023-04-19T17:30:49.190Z,2.95
2023-04-19T17:33:22.182Z,3.08
2023-04-19T17:35:55.333Z,2.90
2023-04-19T17:38:28.316Z,2.83
2023-04-19T17:41:02.752Z,3.30
2023-04-19T17:43:37.186Z,3.28
2023-04-19T17:46:11.814Z,3.20
2023-04-19T17:48:44.857Z,3.28
2023-04-19T17:51:17.834Z,3.60
2023-04-19T17:53:51.513Z,3.60
2023-04-19T17:56:24.887Z,3.47
2023-04-19T17:59:00.663Z,3.22
2023-04-19T18:01:34.979Z,3.75
2023-04-19T18:04:08.223Z,3.95
2023-04-19T18:06:41.416Z,3.88
2023-04-19T18:09:14.825Z,3.45
2023-04-19T18:11:48.599Z,4.70
2023-04-19T18:14:22.979Z,4.20
2023-04-19T18:16:56.107Z,3.63
2023-04-19T18:19:29.259Z,3.75
2023-04-19T18:22:02.322Z,3.57
2023-04-19T18:24:35.492Z,4.10
2023-04-19T18:27:08.505Z,3.90
2023-04-19T18:29:42.892Z,3.88
2023-04-19T18:32:15.952Z,4.37
2023-04-19T18:34:49.080Z,4.27
2023-04-19T18:37:22.067Z,3.90
2023-04-19T18:39:55.018Z,4.10
2023-04-19T18:42:28.043Z,4.40
2023-04-19T18:45:04.061Z,4.90
2023-04-19T18:47:37.209Z,12.93
2023-04-19T18:50:11.906Z,11.43
2023-04-19T18:52:44.931Z,9.37
2023-04-19T18:55:17.998Z,8.37
2023-04-19T18:57:51.058Z,7.37
2023-04-19T19:00:25.729Z,5.60
2023-04-19T19:03:00.487Z,5.57
2023-04-19T19:05:35.430Z,4.57
2023-04-19T19:08:08.559Z,4.70
2023-04-19T19:13:17.605Z,4.10
2023-04-19T19:15:52.061Z,3.80
2023-04-19T19:18:25.269Z,4.63
2023-04-19T19:21:00.192Z,5.90
2023-04-19T19:23:38.347Z,9.70
2023-04-19T19:26:15.426Z,11.87
2023-04-19T19:28:48.464Z,10.50
2023-04-19T19:31:22.919Z,6.30
2023-04-19T19:34:18.238Z,5.60
2023-04-19T19:36:49.735Z,5.70
2023-04-19T19:39:22.771Z,4.97
2023-04-19T19:42:06.035Z,5.43
2023-04-19T19:44:39.673Z,5.63
2023-04-19T19:47:16.922Z,5.43
2023-04-19T19:50:35.040Z,5.80
2023-04-19T19:52:44.716Z,4.87
2023-04-19T19:55:17.908Z,4.87
2023-04-19T20:03:06.382Z,6.67
2023-04-19T20:05:40.336Z,6.00
2023-04-19T20:08:15.369Z,6.57
2023-04-19T20:10:48.545Z,5.90
2023-04-19T20:13:21.704Z,7.03
2023-04-19T20:15:54.722Z,6.03
2023-04-19T20:18:29.276Z,6.87
2023-04-19T20:21:02.281Z,6.57
2023-04-19T20:23:38.749Z,7.47
2023-04-19T20:26:11.788Z,7.40
2023-04-19T20:28:44.832Z,7.27
2023-04-19T20:31:17.875Z,5.80
2023-04-19T20:33:52.762Z,6.03
2023-04-19T20:36:27.605Z,9.23
2023-04-19T20:39:04.943Z,7.63
2023-04-19T20:41:39.043Z,7.90
2023-04-19T20:44:12.525Z,7.47
2023-04-19T20:46:45.828Z,6.90
2023-04-19T20:49:20.400Z,5.90
2023-04-19T20:51:53.663Z,5.70
2023-04-19T20:54:26.785Z,5.70
2023-04-19T20:57:04.473Z,5.63
2023-04-19T20:59:39.283Z,5.90
2023-04-19T21:02:12.351Z,5.70
2023-04-19T21:04:46.743Z,6.30
2023-04-19T21:07:20.182Z,6.60
2023-04-19T21:09:53.248Z,7.10
2023-04-19T21:12:26.358Z,6.77
2023-04-19T21:14:59.381Z,5.93
2023-04-19T21:17:32.431Z,6.90
2023-04-19T21:20:12.284Z,6.73
2023-04-19T21:22:47.472Z,6.53
2023-04-19T21:25:20.652Z,6.70
2023-04-19T21:27:53.651Z,6.03
2023-04-19T21:30:26.707Z,6.27
2023-04-19T21:32:59.762Z,5.83
2023-04-19T21:35:34.791Z,7.20
2023-04-19T21:38:07.847Z,7.03
2023-04-19T21:40:41.049Z,6.27
2023-04-19T21:43:14.056Z,6.07
2023-04-19T21:45:47.121Z,5.53
2023-04-19T21:48:20.162Z,6.30
2023-04-19T21:50:54.663Z,6.20
2023-04-19T21:53:27.806Z,5.57
2023-04-19T21:56:01.642Z,5.63
2023-04-19T21:58:34.692Z,5.07
2023-04-19T22:01:07.816Z,5.73
2023-04-19T22:03:41.004Z,5.50
2023-04-19T22:06:17.007Z,5.93
2023-04-19T22:08:50.647Z,5.90
2023-04-19T22:11:24.041Z,6.10
2023-04-19T22:13:57.717Z,5.87
2023-04-19T22:16:32.690Z,5.57
2023-04-19T22:19:05.898Z,6.10
2023-04-19T22:21:40.265Z,6.30
2023-04-19T22:24:13.361Z,7.03
2023-04-19T22:26:46.364Z,6.37
2023-04-19T22:29:20.162Z,6.00
2023-04-19T22:31:53.219Z,6.10
2023-04-19T22:34:26.277Z,6.37
2023-04-19T22:37:00.683Z,6.40
2023-04-19T22:39:33.717Z,5.87
2023-04-19T22:42:07.228Z,6.30
2023-04-19T22:44:40.224Z,6.07
2023-04-19T22:47:13.418Z,6.30
2023-04-19T22:49:46.442Z,7.17
2023-04-19T22:52:20.904Z,6.17
2023-04-19T22:54:53.943Z,6.70
2023-04-19T22:57:26.940Z,6.13
2023-04-19T22:59:59.970Z,6.80
2023-04-19T23:02:33.067Z,6.60
2023-04-19T23:05:07.539Z,6.40
2023-04-19T23:07:43.707Z,6.23
2023-04-19T23:10:18.252Z,6.90
2023-04-19T23:12:51.317Z,6.83
2023-04-19T23:15:25.216Z,6.60
2023-04-19T23:17:59.418Z,6.23
2023-04-19T23:20:32.890Z,6.33
2023-04-19T23:23:07.927Z,6.80
2023-04-19T23:25:41.009Z,6.77
2023-04-19T23:28:14.080Z,6.97
2023-04-19T23:30:47.161Z,7.03
2023-04-19T23:33:20.163Z,6.70
2023-04-19T23:35:53.189Z,6.90
2023-04-19T23:38:27.612Z,6.70
2023-04-19T23:41:00.895Z,7.20
2023-04-19T23:43:33.975Z,6.00
2023-04-19T23:46:07.947Z,7.20
2023-04-19T23:48:41.167Z,6.67
2023-04-19T23:51:14.201Z,6.70
2023-04-19T23:53:48.592Z,7.03
2023-04-19T23:56:21.593Z,7.30
2023-04-19T23:58:54.733Z,7.47
